world map with FLW marked

FLW - Airport

This information may not be accurate or current and is not valid for navigation or flight planning. No warranty of fitness for any purpose is made or implied.

flag of Região Autónoma dos Açores (Azores)flag of Portugal

Donate via PayPal

Additional information is available on the NEW Great Circle Mapper

Location
City:  Flores Island, Região Autónoma dos Açores (Azores), Portugal
Name:Santa Cruz
ICAO / IATA:LPFL / FLW

Details
Type:Airport (Aerodrome, Airfield)
Use:Public/Civil
Latitude:39°27'19"N (39.455272)
Longitude:31°07'53"W (-31.131360)
Datum:WGS 1984
Elevation:112 ft (34 m)
Runways:1
Longest:4593 × 98 ft (1400 × 30 m)

Time
Timezone:UTC+33:08 (DST+36:08)
Local Time:

Weather
METAR:LPFL  241330Z 17011KT 9999 FEW025 BKN040 23/16 Q1020

Related Locations
Nearby:
Farthest:FLS: 12371 mi / 19910 km
Flinders Island, Tas, AU

Find:

   beyond  
but within

Other Information
Maps:
Sources:

  


 


Great Circle Mapper   Great Circle Mapper
Great Circle Mapper FAQ   Great Circle Mapper FAQ
  Karl's Home Page
KLS²   KLS² Home
   GC on Facebook
Airlines of the World   Airlines of the World
Donate via PayPal


Copyright © 2004-2017, Karl L. Swartz. All rights reserved.
All trademarks mentioned herein belong to their respective owners.

Please see credits for attribution and copyright information.

Karl Swartz <karl@kls2.com>
  Powered by FreeBSD
Valid HTML 4.01!
Labeled with ICRA
hCard Microformat
Geo Microformat